sensor_id;sensor_type;location;lat;lon;timestamp;pressure;altitude;pressure_sealevel;temperature;humidity
9415;BME280;4746;35.664;139.738;2022-10-16T00:01:42;100845.03;;;26.71;50.27
9415;BME280;4746;35.664;139.738;2022-10-16T00:04:10;100845.38;;;26.82;49.78
9415;BME280;4746;35.664;139.738;2022-10-16T00:06:37;100840.56;;;26.90;49.63
9415;BME280;4746;35.664;139.738;2022-10-16T00:09:06;100836.44;;;27.03;49.44
9415;BME280;4746;35.664;139.738;2022-10-16T00:11:39;100841.63;;;27.21;49.10
9415;BME280;4746;35.664;139.738;2022-10-16T00:14:14;100842.19;;;27.28;49.08
9415;BME280;4746;35.664;139.738;2022-10-16T00:16:43;100841.16;;;27.30;48.51
9415;BME280;4746;35.664;139.738;2022-10-16T00:19:11;100842.69;;;27.34;48.84
9415;BME280;4746;35.664;139.738;2022-10-16T00:21:39;100843.25;;;27.40;49.09
9415;BME280;4746;35.664;139.738;2022-10-16T00:24:09;100834.88;;;27.33;48.64
9415;BME280;4746;35.664;139.738;2022-10-16T00:26:38;100836.03;;;27.44;48.94
9415;BME280;4746;35.664;139.738;2022-10-16T00:29:07;100843.28;;;27.56;48.41
9415;BME280;4746;35.664;139.738;2022-10-16T00:31:35;100837.00;;;27.58;48.27
9415;BME280;4746;35.664;139.738;2022-10-16T00:34:03;100829.91;;;27.60;48.57
9415;BME280;4746;35.664;139.738;2022-10-16T00:36:30;100829.44;;;27.69;48.43
9415;BME280;4746;35.664;139.738;2022-10-16T00:38:59;100830.81;;;27.76;48.34
9415;BME280;4746;35.664;139.738;2022-10-16T00:41:28;100827.41;;;27.74;48.39
9415;BME280;4746;35.664;139.738;2022-10-16T00:43:59;100828.81;;;27.81;48.30
9415;BME280;4746;35.664;139.738;2022-10-16T00:46:40;100828.63;;;27.84;48.26
9415;BME280;4746;35.664;139.738;2022-10-16T00:49:17;100833.81;;;27.86;48.16
9415;BME280;4746;35.664;139.738;2022-10-16T00:51:52;100819.03;;;27.99;48.00
9415;BME280;4746;35.664;139.738;2022-10-16T00:54:30;100821.34;;;28.05;47.53
9415;BME280;4746;35.664;139.738;2022-10-16T00:57:02;100826.47;;;28.08;47.42
9415;BME280;4746;35.664;139.738;2022-10-16T00:59:36;100827.66;;;28.17;47.61
9415;BME280;4746;35.664;139.738;2022-10-16T01:02:08;100821.00;;;28.10;47.48
9415;BME280;4746;35.664;139.738;2022-10-16T01:04:52;100821.81;;;28.28;47.50
9415;BME280;4746;35.664;139.738;2022-10-16T01:10:33;100817.88;;;28.66;46.86
9415;BME280;4746;35.664;139.738;2022-10-16T01:13:16;100813.72;;;28.77;46.71
9415;BME280;4746;35.664;139.738;2022-10-16T01:18:57;100808.94;;;28.83;46.67
9415;BME280;4746;35.664;139.738;2022-10-16T01:21:33;100802.03;;;28.81;46.51
9415;BME280;4746;35.664;139.738;2022-10-16T01:24:21;100794.97;;;28.82;46.59
9415;BME280;4746;35.664;139.738;2022-10-16T01:29:59;100793.78;;;28.87;46.02
9415;BME280;4746;35.664;139.738;2022-10-16T01:32:42;100796.22;;;28.90;46.33
9415;BME280;4746;35.664;139.738;2022-10-16T01:35:27;100792.06;;;28.86;46.00
9415;BME280;4746;35.664;139.738;2022-10-16T01:40:34;100787.91;;;28.67;46.65
9415;BME280;4746;35.664;139.738;2022-10-16T01:43:35;100784.09;;;28.72;46.83
9415;BME280;4746;35.664;139.738;2022-10-16T01:46:05;100785.09;;;28.70;46.38
9415;BME280;4746;35.664;139.738;2022-10-16T01:48:34;100783.88;;;28.90;46.16
9415;BME280;4746;35.664;139.738;2022-10-16T01:51:13;100783.44;;;28.98;45.98
9415;BME280;4746;35.664;139.738;2022-10-16T01:53:48;100780.69;;;28.99;46.36
9415;BME280;4746;35.664;139.738;2022-10-16T01:56:19;100774.69;;;28.97;45.74
9415;BME280;4746;35.664;139.738;2022-10-16T01:59:04;100774.38;;;29.02;46.05
9415;BME280;4746;35.664;139.738;2022-10-16T02:01:37;100772.41;;;29.05;45.43
9415;BME280;4746;35.664;139.738;2022-10-16T02:04:20;100759.63;;;29.13;45.98
9415;BME280;4746;35.664;139.738;2022-10-16T02:06:50;100757.75;;;29.15;45.95
9415;BME280;4746;35.664;139.738;2022-10-16T02:09:17;100766.03;;;29.23;45.41
9415;BME280;4746;35.664;139.738;2022-10-16T02:11:45;100752.34;;;29.31;45.49
9415;BME280;4746;35.664;139.738;2022-10-16T02:14:13;100754.38;;;29.41;44.93
9415;BME280;4746;35.664;139.738;2022-10-16T02:16:45;100751.19;;;29.50;44.91
9415;BME280;4746;35.664;139.738;2022-10-16T02:19:14;100749.84;;;29.57;44.72
9415;BME280;4746;35.664;139.738;2022-10-16T02:22:05;100750.41;;;29.76;44.66
9415;BME280;4746;35.664;139.738;2022-10-16T02:24:54;100737.34;;;29.87;44.36
9415;BME280;4746;35.664;139.738;2022-10-16T02:32:55;100734.63;;;29.88;44.04
9415;BME280;4746;35.664;139.738;2022-10-16T02:35:26;100727.19;;;29.95;43.87
9415;BME280;4746;35.664;139.738;2022-10-16T02:37:56;100725.47;;;30.08;43.60
9415;BME280;4746;35.664;139.738;2022-10-16T02:40:24;100726.69;;;30.28;43.27
9415;BME280;4746;35.664;139.738;2022-10-16T02:42:56;100717.19;;;30.52;42.80
9415;BME280;4746;35.664;139.738;2022-10-16T02:45:24;100718.25;;;30.62;42.96
9415;BME280;4746;35.664;139.738;2022-10-16T02:47:52;100713.44;;;30.81;42.33
9415;BME280;4746;35.664;139.738;2022-10-16T02:50:19;100704.53;;;30.95;42.30
9415;BME280;4746;35.664;139.738;2022-10-16T02:52:47;100699.81;;;31.12;41.35
9415;BME280;4746;35.664;139.738;2022-10-16T02:55:15;100694.00;;;31.32;41.63
9415;BME280;4746;35.664;139.738;2022-10-16T02:57:42;100684.44;;;31.54;41.09
9415;BME280;4746;35.664;139.738;2022-10-16T03:00:13;100683.38;;;31.92;41.08
9415;BME280;4746;35.664;139.738;2022-10-16T03:02:42;100671.94;;;32.15;40.35
9415;BME280;4746;35.664;139.738;2022-10-16T03:05:10;100672.72;;;32.28;39.96
9415;BME280;4746;35.664;139.738;2022-10-16T03:07:38;100670.97;;;32.40;39.45
9415;BME280;4746;35.664;139.738;2022-10-16T03:10:06;100673.25;;;32.56;39.39
9415;BME280;4746;35.664;139.738;2022-10-16T03:12:34;100665.66;;;32.74;39.20
9415;BME280;4746;35.664;139.738;2022-10-16T03:15:02;100665.47;;;32.88;39.02
9415;BME280;4746;35.664;139.738;2022-10-16T03:17:29;100663.78;;;32.87;38.66
9415;BME280;4746;35.664;139.738;2022-10-16T03:19:58;100659.41;;;32.75;38.89
9415;BME280;4746;35.664;139.738;2022-10-16T03:22:26;100652.38;;;32.63;39.03
9415;BME280;4746;35.664;139.738;2022-10-16T03:24:53;100658.03;;;32.58;39.52
9415;BME280;4746;35.664;139.738;2022-10-16T03:27:21;100650.94;;;32.59;39.23
9415;BME280;4746;35.664;139.738;2022-10-16T03:29:48;100650.22;;;32.68;38.97
9415;BME280;4746;35.664;139.738;2022-10-16T03:32:16;100649.72;;;32.74;39.32
9415;BME280;4746;35.664;139.738;2022-10-16T03:34:46;100643.41;;;32.98;38.84
9415;BME280;4746;35.664;139.738;2022-10-16T03:37:14;100645.22;;;33.19;38.54
9415;BME280;4746;35.664;139.738;2022-10-16T03:39:41;100633.03;;;33.39;38.00
9415;BME280;4746;35.664;139.738;2022-10-16T03:42:09;100621.75;;;33.68;37.41
9415;BME280;4746;35.664;139.738;2022-10-16T03:44:36;100619.97;;;34.00;36.71
9415;BME280;4746;35.664;139.738;2022-10-16T03:47:04;100625.56;;;34.49;36.36
9415;BME280;4746;35.664;139.738;2022-10-16T03:49:31;100614.31;;;34.86;35.66
9415;BME280;4746;35.664;139.738;2022-10-16T03:51:58;100609.91;;;35.26;34.87
9415;BME280;4746;35.664;139.738;2022-10-16T03:54:26;100606.91;;;36.07;34.30
9415;BME280;4746;35.664;139.738;2022-10-16T03:56:53;100608.06;;;36.88;32.93
9415;BME280;4746;35.664;139.738;2022-10-16T03:59:21;100606.66;;;37.20;32.13
9415;BME280;4746;35.664;139.738;2022-10-16T04:01:48;100601.84;;;37.33;31.38
9415;BME280;4746;35.664;139.738;2022-10-16T04:04:15;100596.69;;;37.93;30.61
9415;BME280;4746;35.664;139.738;2022-10-16T04:06:43;100594.72;;;38.73;29.52
9415;BME280;4746;35.664;139.738;2022-10-16T04:09:10;100583.53;;;39.10;29.59
9415;BME280;4746;35.664;139.738;2022-10-16T04:11:38;100584.34;;;39.03;29.04
9415;BME280;4746;35.664;139.738;2022-10-16T04:14:05;100579.03;;;38.86;29.40
9415;BME280;4746;35.664;139.738;2022-10-16T04:16:33;100575.59;;;38.68;28.80
9415;BME280;4746;35.664;139.738;2022-10-16T04:19:00;100569.34;;;38.42;29.59
9415;BME280;4746;35.664;139.738;2022-10-16T04:21:28;100581.91;;;38.41;29.69
9415;BME280;4746;35.664;139.738;2022-10-16T04:23:55;100567.50;;;38.60;29.50
9415;BME280;4746;35.664;139.738;2022-10-16T04:26:23;100566.56;;;39.43;28.61
9415;BME280;4746;35.664;139.738;2022-10-16T04:28:50;100570.06;;;41.57;26.32
9415;BME280;4746;35.664;139.738;2022-10-16T04:31:18;100557.03;;;42.13;24.51
9415;BME280;4746;35.664;139.738;2022-10-16T04:33:45;100560.84;;;41.05;25.70
9415;BME280;4746;35.664;139.738;2022-10-16T04:36:13;100549.91;;;39.89;26.93
9415;BME280;4746;35.664;139.738;2022-10-16T04:38:41;100561.69;;;38.72;28.27
9415;BME280;4746;35.664;139.738;2022-10-16T04:41:09;100562.44;;;37.79;29.53
9415;BME280;4746;35.664;139.738;2022-10-16T04:43:36;100560.97;;;37.14;30.04
9415;BME280;4746;35.664;139.738;2022-10-16T04:46:04;100559.84;;;36.80;30.36
9415;BME280;4746;35.664;139.738;2022-10-16T04:48:32;100559.22;;;36.50;30.75
9415;BME280;4746;35.664;139.738;2022-10-16T04:51:01;100558.28;;;36.13;31.90
9415;BME280;4746;35.664;139.738;2022-10-16T04:53:28;100558.94;;;35.68;32.20
9415;BME280;4746;35.664;139.738;2022-10-16T04:55:55;100554.47;;;35.20;33.16
9415;BME280;4746;35.664;139.738;2022-10-16T04:58:25;100553.03;;;34.76;33.63
9415;BME280;4746;35.664;139.738;2022-10-16T05:00:52;100554.19;;;34.43;34.18
9415;BME280;4746;35.664;139.738;2022-10-16T05:03:20;100550.19;;;34.07;34.37
9415;BME280;4746;35.664;139.738;2022-10-16T05:05:47;100550.63;;;33.81;34.48
9415;BME280;4746;35.664;139.738;2022-10-16T05:08:16;100548.75;;;33.61;34.79
9415;BME280;4746;35.664;139.738;2022-10-16T05:10:45;100542.16;;;33.45;35.58
9415;BME280;4746;35.664;139.738;2022-10-16T05:13:13;100541.59;;;33.19;35.80
9415;BME280;4746;35.664;139.738;2022-10-16T05:15:46;100544.97;;;33.00;35.39
9415;BME280;4746;35.664;139.738;2022-10-16T05:18:13;100545.22;;;32.75;36.62
9415;BME280;4746;35.664;139.738;2022-10-16T05:20:42;100551.22;;;32.55;37.08
9415;BME280;4746;35.664;139.738;2022-10-16T05:23:09;100549.72;;;32.29;37.01
9415;BME280;4746;35.664;139.738;2022-10-16T05:25:38;100547.72;;;32.09;37.64
9415;BME280;4746;35.664;139.738;2022-10-16T05:28:06;100548.25;;;31.91;37.83
9415;BME280;4746;35.664;139.738;2022-10-16T05:30:36;100542.50;;;31.73;38.31
9415;BME280;4746;35.664;139.738;2022-10-16T05:33:04;100545.78;;;31.54;38.61
9415;BME280;4746;35.664;139.738;2022-10-16T05:35:31;100543.44;;;31.26;39.14
9415;BME280;4746;35.664;139.738;2022-10-16T05:38:00;100541.25;;;31.07;40.00
9415;BME280;4746;35.664;139.738;2022-10-16T05:40:28;100548.75;;;30.89;40.65
9415;BME280;4746;35.664;139.738;2022-10-16T05:42:56;100548.16;;;30.73;41.02
9415;BME280;4746;35.664;139.738;2022-10-16T05:45:23;100556.31;;;30.57;41.42
9415;BME280;4746;35.664;139.738;2022-10-16T05:47:51;100550.19;;;30.44;41.35
9415;BME280;4746;35.664;139.738;2022-10-16T05:50:18;100550.78;;;30.35;41.20
9415;BME280;4746;35.664;139.738;2022-10-16T05:52:46;100556.13;;;30.22;41.25
9415;BME280;4746;35.664;139.738;2022-10-16T05:55:13;100548.50;;;30.05;41.55
9415;BME280;4746;35.664;139.738;2022-10-16T05:57:42;100561.88;;;29.89;41.86
9415;BME280;4746;35.664;139.738;2022-10-16T06:00:10;100560.88;;;29.78;42.12
9415;BME280;4746;35.664;139.738;2022-10-16T06:02:38;100564.13;;;29.69;42.05
9415;BME280;4746;35.664;139.738;2022-10-16T06:05:06;100548.88;;;29.60;42.62
9415;BME280;4746;35.664;139.738;2022-10-16T06:07:36;100558.91;;;29.55;42.78
9415;BME280;4746;35.664;139.738;2022-10-16T06:10:04;100561.19;;;29.47;42.86
9415;BME280;4746;35.664;139.738;2022-10-16T06:12:32;100565.91;;;29.42;43.74
9415;BME280;4746;35.664;139.738;2022-10-16T06:14:59;100571.09;;;29.44;43.35
9415;BME280;4746;35.664;139.738;2022-10-16T06:17:27;100558.34;;;29.50;43.28
9415;BME280;4746;35.664;139.738;2022-10-16T06:19:54;100558.91;;;29.55;43.54
9415;BME280;4746;35.664;139.738;2022-10-16T06:22:22;100558.22;;;29.65;43.18
9415;BME280;4746;35.664;139.738;2022-10-16T06:24:49;100554.72;;;29.77;43.25
9415;BME280;4746;35.664;139.738;2022-10-16T06:27:16;100554.53;;;30.07;42.87
9415;BME280;4746;35.664;139.738;2022-10-16T06:29:45;100558.94;;;30.32;42.41
9415;BME280;4746;35.664;139.738;2022-10-16T06:32:12;100553.66;;;30.57;42.08
9415;BME280;4746;35.664;139.738;2022-10-16T06:34:40;100556.94;;;30.98;41.85
9415;BME280;4746;35.664;139.738;2022-10-16T06:37:07;100559.84;;;31.18;41.36
9415;BME280;4746;35.664;139.738;2022-10-16T06:39:35;100565.25;;;31.17;41.18
9415;BME280;4746;35.664;139.738;2022-10-16T06:42:02;100552.25;;;31.14;41.67
9415;BME280;4746;35.664;139.738;2022-10-16T06:44:30;100560.84;;;31.05;41.08
9415;BME280;4746;35.664;139.738;2022-10-16T06:46:57;100564.63;;;30.89;41.67
9415;BME280;4746;35.664;139.738;2022-10-16T06:49:25;100569.22;;;30.74;42.21
9415;BME280;4746;35.664;139.738;2022-10-16T06:51:52;100563.94;;;30.62;42.08
9415;BME280;4746;35.664;139.738;2022-10-16T06:54:20;100567.66;;;30.47;42.45
9415;BME280;4746;35.664;139.738;2022-10-16T06:56:47;100561.56;;;30.32;42.94
9415;BME280;4746;35.664;139.738;2022-10-16T06:59:17;100553.72;;;30.19;43.18
9415;BME280;4746;35.664;139.738;2022-10-16T07:01:44;100563.63;;;30.03;42.60
9415;BME280;4746;35.664;139.738;2022-10-16T07:04:14;100553.97;;;29.89;43.39
9415;BME280;4746;35.664;139.738;2022-10-16T07:06:41;100568.81;;;29.78;43.64
9415;BME280;4746;35.664;139.738;2022-10-16T07:09:11;100560.00;;;29.65;43.80
9415;BME280;4746;35.664;139.738;2022-10-16T07:11:40;100567.88;;;29.53;44.08
9415;BME280;4746;35.664;139.738;2022-10-16T07:14:17;100555.16;;;29.45;44.05
9415;BME280;4746;35.664;139.738;2022-10-16T07:16:45;100568.53;;;29.28;44.84
9415;BME280;4746;35.664;139.738;2022-10-16T07:19:14;100565.47;;;29.22;45.24
9415;BME280;4746;35.664;139.738;2022-10-16T07:21:43;100566.78;;;29.15;45.50
9415;BME280;4746;35.664;139.738;2022-10-16T07:24:16;100555.56;;;29.11;44.89
9415;BME280;4746;35.664;139.738;2022-10-16T07:26:45;100561.44;;;29.02;45.52
9415;BME280;4746;35.664;139.738;2022-10-16T07:29:19;100554.84;;;28.95;45.67
9415;BME280;4746;35.664;139.738;2022-10-16T07:31:48;100558.75;;;29.16;45.58
9415;BME280;4746;35.664;139.738;2022-10-16T07:34:19;100561.38;;;29.30;45.46
9415;BME280;4746;35.664;139.738;2022-10-16T07:36:51;100553.97;;;29.23;45.89
9415;BME280;4746;35.664;139.738;2022-10-16T07:39:19;100549.34;;;29.12;46.07
9415;BME280;4746;35.664;139.738;2022-10-16T07:41:46;100544.56;;;29.05;46.55
9415;BME280;4746;35.664;139.738;2022-10-16T07:44:15;100541.41;;;29.26;46.20
9415;BME280;4746;35.664;139.738;2022-10-16T07:46:43;100545.00;;;29.39;45.74
9415;BME280;4746;35.664;139.738;2022-10-16T07:49:11;100549.50;;;29.23;45.88
9415;BME280;4746;35.664;139.738;2022-10-16T07:51:38;100545.78;;;28.99;45.90
9415;BME280;4746;35.664;139.738;2022-10-16T07:54:07;100548.91;;;28.78;46.41
9415;BME280;4746;35.664;139.738;2022-10-16T07:56:35;100543.13;;;28.58;46.72
9415;BME280;4746;35.664;139.738;2022-10-16T07:59:02;100546.91;;;28.40;47.11
9415;BME280;4746;35.664;139.738;2022-10-16T08:01:30;100536.50;;;28.23;47.51
9415;BME280;4746;35.664;139.738;2022-10-16T08:03:57;100533.81;;;28.09;47.64
9415;BME280;4746;35.664;139.738;2022-10-16T08:06:25;100536.22;;;27.98;47.85
9415;BME280;4746;35.664;139.738;2022-10-16T08:08:52;100535.25;;;27.85;48.13
9415;BME280;4746;35.664;139.738;2022-10-16T08:11:21;100535.97;;;27.73;48.57
9415;BME280;4746;35.664;139.738;2022-10-16T08:13:48;100540.91;;;27.64;48.67
9415;BME280;4746;35.664;139.738;2022-10-16T08:16:19;100535.94;;;27.58;48.72
9415;BME280;4746;35.664;139.738;2022-10-16T08:18:47;100537.66;;;27.43;49.30
9415;BME280;4746;35.664;139.738;2022-10-16T08:21:21;100536.16;;;27.39;49.10
9415;BME280;4746;35.664;139.738;2022-10-16T08:23:52;100537.56;;;27.30;49.75
9415;BME280;4746;35.664;139.738;2022-10-16T08:26:20;100539.88;;;27.20;50.06
9415;BME280;4746;35.664;139.738;2022-10-16T08:28:50;100542.59;;;27.19;49.85
9415;BME280;4746;35.664;139.738;2022-10-16T08:31:18;100538.00;;;27.07;50.62
9415;BME280;4746;35.664;139.738;2022-10-16T08:33:46;100538.28;;;27.02;50.18
9415;BME280;4746;35.664;139.738;2022-10-16T08:36:15;100540.22;;;26.99;50.44
9415;BME280;4746;35.664;139.738;2022-10-16T08:38:43;100538.81;;;26.92;50.58
9415;BME280;4746;35.664;139.738;2022-10-16T08:41:49;100545.78;;;26.93;50.26
9415;BME280;4746;35.664;139.738;2022-10-16T08:44:57;100554.00;;;26.87;50.26
9415;BME280;4746;35.664;139.738;2022-10-16T08:50:37;100558.22;;;26.74;50.81
9415;BME280;4746;35.664;139.738;2022-10-16T08:53:07;100561.94;;;26.70;51.26
9415;BME280;4746;35.664;139.738;2022-10-16T08:55:51;100559.13;;;26.73;50.87
9415;BME280;4746;35.664;139.738;2022-10-16T08:58:27;100569.06;;;26.68;51.48
9415;BME280;4746;35.664;139.738;2022-10-16T09:01:03;100570.16;;;26.64;51.23
9415;BME280;4746;35.664;139.738;2022-10-16T09:06:55;100573.88;;;26.60;51.46
9415;BME280;4746;35.664;139.738;2022-10-16T09:15:59;100578.69;;;26.52;51.74
9415;BME280;4746;35.664;139.738;2022-10-16T09:21:30;100580.69;;;26.47;52.14
9415;BME280;4746;35.664;139.738;2022-10-16T09:24:17;100573.88;;;26.43;52.15
9415;BME280;4746;35.664;139.738;2022-10-16T09:26:46;100579.47;;;26.37;52.60
9415;BME280;4746;35.664;139.738;2022-10-16T09:29:16;100578.53;;;26.38;52.76
9415;BME280;4746;35.664;139.738;2022-10-16T09:31:47;100585.63;;;26.36;52.77
9415;BME280;4746;35.664;139.738;2022-10-16T09:34:33;100577.53;;;26.41;52.96
9415;BME280;4746;35.664;139.738;2022-10-16T09:37:09;100583.78;;;26.38;52.65
9415;BME280;4746;35.664;139.738;2022-10-16T09:39:51;100583.88;;;26.37;53.09
9415;BME280;4746;35.664;139.738;2022-10-16T09:42:31;100574.19;;;26.37;53.14
9415;BME280;4746;35.664;139.738;2022-10-16T09:45:00;100573.75;;;26.29;53.63
9415;BME280;4746;35.664;139.738;2022-10-16T09:47:30;100572.03;;;26.28;53.29
9415;BME280;4746;35.664;139.738;2022-10-16T09:50:22;100570.00;;;26.33;53.53
9415;BME280;4746;35.664;139.738;2022-10-16T09:52:50;100572.25;;;26.24;53.71
9415;BME280;4746;35.664;139.738;2022-10-16T09:55:19;100576.59;;;26.25;53.84
9415;BME280;4746;35.664;139.738;2022-10-16T09:57:54;100574.66;;;26.28;53.60
9415;BME280;4746;35.664;139.738;2022-10-16T10:00:24;100572.16;;;26.25;53.71
9415;BME280;4746;35.664;139.738;2022-10-16T10:02:54;100574.78;;;26.25;53.51
9415;BME280;4746;35.664;139.738;2022-10-16T10:05:28;100579.91;;;26.28;53.61
9415;BME280;4746;35.664;139.738;2022-10-16T10:08:02;100582.47;;;26.30;53.65
9415;BME280;4746;35.664;139.738;2022-10-16T10:10:43;100573.56;;;26.32;54.06
9415;BME280;4746;35.664;139.738;2022-10-16T10:13:24;100579.59;;;26.34;53.62
9415;BME280;4746;35.664;139.738;2022-10-16T10:15:54;100569.31;;;26.30;53.81
9415;BME280;4746;35.664;139.738;2022-10-16T10:18:23;100570.00;;;26.33;54.12
9415;BME280;4746;35.664;139.738;2022-10-16T10:21:02;100568.03;;;26.38;53.84
9415;BME280;4746;35.664;139.738;2022-10-16T10:23:32;100566.47;;;26.34;54.01
9415;BME280;4746;35.664;139.738;2022-10-16T10:26:24;100554.66;;;26.43;53.58
9415;BME280;4746;35.664;139.738;2022-10-16T10:45:48;100563.84;;;26.34;53.81
9415;BME280;4746;35.664;139.738;2022-10-16T10:48:59;100555.94;;;26.34;53.73
9415;BME280;4746;35.664;139.738;2022-10-16T10:57:37;100574.34;;;26.34;53.62
9415;BME280;4746;35.664;139.738;2022-10-16T11:06:32;100566.31;;;26.37;53.36
9415;BME280;4746;35.664;139.738;2022-10-16T11:09:48;100570.78;;;26.35;53.28
9415;BME280;4746;35.664;139.738;2022-10-16T11:13:03;100569.88;;;26.36;53.16
9415;BME280;4746;35.664;139.738;2022-10-16T11:15:40;100570.00;;;26.33;53.49
9415;BME280;4746;35.664;139.738;2022-10-16T11:18:49;100558.34;;;26.39;53.13
9415;BME280;4746;35.664;139.738;2022-10-16T11:21:17;100559.34;;;26.36;53.59
9415;BME280;4746;35.664;139.738;2022-10-16T11:24:22;100557.38;;;26.41;53.27
9415;BME280;4746;35.664;139.738;2022-10-16T11:26:54;100560.22;;;26.37;53.61
9415;BME280;4746;35.664;139.738;2022-10-16T11:29:30;100549.47;;;26.41;53.35
9415;BME280;4746;35.664;139.738;2022-10-16T11:32:52;100549.31;;;26.44;53.38
9415;BME280;4746;35.664;139.738;2022-10-16T11:36:19;100555.50;;;26.43;53.33
9415;BME280;4746;35.664;139.738;2022-10-16T11:39:21;100560.75;;;26.43;53.00
9415;BME280;4746;35.664;139.738;2022-10-16T11:45:23;100558.03;;;26.45;53.37
9415;BME280;4746;35.664;139.738;2022-10-16T11:48:22;100558.22;;;26.42;53.38
9415;BME280;4746;35.664;139.738;2022-10-16T11:54:41;100559.91;;;26.43;53.39
9415;BME280;4746;35.664;139.738;2022-10-16T11:56:45;100575.00;;;26.39;53.68
9415;BME280;4746;35.664;139.738;2022-10-16T12:05:18;100572.97;;;26.44;53.09
9415;BME280;4746;35.664;139.738;2022-10-16T12:08:14;100558.03;;;26.45;53.39
9415;BME280;4746;35.664;139.738;2022-10-16T12:10:46;100553.78;;;26.42;53.82
9415;BME280;4746;35.664;139.738;2022-10-16T12:13:35;100546.50;;;26.47;53.42
9415;BME280;4746;35.664;139.738;2022-10-16T12:18:49;100561.53;;;26.45;53.49
9415;BME280;4746;35.664;139.738;2022-10-16T12:21:32;100561.66;;;26.42;53.43
9415;BME280;4746;35.664;139.738;2022-10-16T12:24:03;100564.25;;;26.44;53.75
9415;BME280;4746;35.664;139.738;2022-10-16T12:26:38;100563.22;;;26.46;53.65
9415;BME280;4746;35.664;139.738;2022-10-16T12:29:42;100563.97;;;26.48;53.79
9415;BME280;4746;35.664;139.738;2022-10-16T12:35:05;100552.84;;;26.43;53.70
9415;BME280;4746;35.664;139.738;2022-10-16T12:37:44;100546.84;;;26.41;53.82
9415;BME280;4746;35.664;139.738;2022-10-16T12:40:27;100551.75;;;26.47;53.67
9415;BME280;4746;35.664;139.738;2022-10-16T12:42:55;100555.66;;;26.40;53.86
9415;BME280;4746;35.664;139.738;2022-10-16T12:45:33;100552.63;;;26.48;53.49
9415;BME280;4746;35.664;139.738;2022-10-16T12:48:18;100544.84;;;26.46;53.32
9415;BME280;4746;35.664;139.738;2022-10-16T12:50:46;100538.00;;;26.42;53.80
9415;BME280;4746;35.664;139.738;2022-10-16T12:53:23;100544.84;;;26.46;53.63
9415;BME280;4746;35.664;139.738;2022-10-16T12:56:29;100536.84;;;26.48;53.42
9415;BME280;4746;35.664;139.738;2022-10-16T12:59:09;100527.69;;;26.39;53.85
9415;BME280;4746;35.664;139.738;2022-10-16T13:14:26;100519.28;;;26.31;53.93
9415;BME280;4746;35.664;139.738;2022-10-16T13:28:11;100504.78;;;26.24;54.70
9415;BME280;4746;35.664;139.738;2022-10-16T13:30:51;100500.28;;;26.26;54.48
9415;BME280;4746;35.664;139.738;2022-10-16T13:33:39;100495.63;;;26.31;54.57
9415;BME280;4746;35.664;139.738;2022-10-16T13:36:27;100500.81;;;26.33;54.19
9415;BME280;4746;35.664;139.738;2022-10-16T13:39:26;100491.03;;;26.36;54.04
9415;BME280;4746;35.664;139.738;2022-10-16T13:42:15;100494.56;;;26.35;54.26
9415;BME280;4746;35.664;139.738;2022-10-16T13:44:52;100484.22;;;26.32;54.16
9415;BME280;4746;35.664;139.738;2022-10-16T13:47:26;100472.84;;;26.32;53.93
9415;BME280;4746;35.664;139.738;2022-10-16T13:50:20;100476.03;;;26.38;54.32
9415;BME280;4746;35.664;139.738;2022-10-16T13:52:47;100476.50;;;26.29;54.55
9415;BME280;4746;35.664;139.738;2022-10-16T13:55:18;100475.41;;;26.33;54.41
9415;BME280;4746;35.664;139.738;2022-10-16T13:57:46;100464.97;;;26.32;53.94
9415;BME280;4746;35.664;139.738;2022-10-16T14:00:26;100464.75;;;26.36;54.09
9415;BME280;4746;35.664;139.738;2022-10-16T14:03:14;100463.88;;;26.36;53.92
9415;BME280;4746;35.664;139.738;2022-10-16T14:05:53;100449.91;;;26.35;54.30
9415;BME280;4746;35.664;139.738;2022-10-16T14:08:25;100455.16;;;26.35;54.22
9415;BME280;4746;35.664;139.738;2022-10-16T14:10:57;100448.34;;;26.31;54.30
9415;BME280;4746;35.664;139.738;2022-10-16T14:13:37;100446.41;;;26.35;54.24
9415;BME280;4746;35.664;139.738;2022-10-16T14:16:10;100442.00;;;26.35;54.31
9415;BME280;4746;35.664;139.738;2022-10-16T14:18:55;100440.16;;;26.37;54.06
9415;BME280;4746;35.664;139.738;2022-10-16T14:21:23;100443.84;;;26.33;54.24
9415;BME280;4746;35.664;139.738;2022-10-16T14:23:51;100439.63;;;26.31;54.35
9415;BME280;4746;35.664;139.738;2022-10-16T14:26:22;100443.72;;;26.36;54.48
9415;BME280;4746;35.664;139.738;2022-10-16T14:29:20;100445.28;;;26.40;54.07
9415;BME280;4746;35.664;139.738;2022-10-16T14:32:02;100439.25;;;26.38;54.14
9415;BME280;4746;35.664;139.738;2022-10-16T14:34:39;100435.78;;;26.38;54.64
9415;BME280;4746;35.664;139.738;2022-10-16T14:37:29;100432.97;;;26.41;54.45
9415;BME280;4746;35.664;139.738;2022-10-16T14:39:57;100422.75;;;26.35;54.40
9415;BME280;4746;35.664;139.738;2022-10-16T14:42:26;100411.41;;;26.34;54.66
9415;BME280;4746;35.664;139.738;2022-10-16T14:44:55;100411.41;;;26.34;54.88
9415;BME280;4746;35.664;139.738;2022-10-16T14:47:26;100406.91;;;26.36;54.62
9415;BME280;4746;35.664;139.738;2022-10-16T14:49:55;100389.44;;;26.35;55.07
9415;BME280;4746;35.664;139.738;2022-10-16T14:52:25;100386.88;;;26.34;54.87
9415;BME280;4746;35.664;139.738;2022-10-16T14:54:53;100386.28;;;26.29;55.48
9415;BME280;4746;35.664;139.738;2022-10-16T14:57:27;100393.00;;;26.34;55.23
9415;BME280;4746;35.664;139.738;2022-10-16T14:59:57;100385.50;;;26.27;55.11
9415;BME280;4746;35.664;139.738;2022-10-16T15:02:35;100374.75;;;26.31;55.41
9415;BME280;4746;35.664;139.738;2022-10-16T15:05:22;100377.38;;;26.31;55.62
9415;BME280;4746;35.664;139.738;2022-10-16T15:07:51;100374.34;;;26.23;55.73